sensor_id;sensor_type;location;lat;lon;timestamp;pressure;altitude;pressure_sealevel;temperature;humidity
63715;BME280;49858;48.956;9.076;2023-01-30T00:01:55;99424.06;;;-1.34;100.00
63715;BME280;49858;48.956;9.076;2023-01-30T00:04:23;99415.56;;;-1.06;100.00
63715;BME280;49858;48.956;9.076;2023-01-30T00:06:50;99409.91;;;-0.99;100.00
63715;BME280;49858;48.956;9.076;2023-01-30T00:09:18;99417.97;;;-1.89;100.00
63715;BME280;49858;48.956;9.076;2023-01-30T00:11:47;99424.66;;;-1.96;100.00
63715;BME280;49858;48.956;9.076;2023-01-30T00:14:15;99418.16;;;-1.68;100.00
63715;BME280;49858;48.956;9.076;2023-01-30T00:16:43;99422.53;;;-1.57;100.00
63715;BME280;49858;48.956;9.076;2023-01-30T00:19:10;99425.75;;;-1.60;100.00
63715;BME280;49858;48.956;9.076;2023-01-30T00:21:38;99411.09;;;-1.32;100.00
63715;BME280;49858;48.956;9.076;2023-01-30T00:24:06;99405.25;;;-1.19;100.00
63715;BME280;49858;48.956;9.076;2023-01-30T00:26:34;99392.22;;;-0.69;100.00
63715;BME280;49858;48.956;9.076;2023-01-30T00:29:04;99391.25;;;-0.22;100.00
63715;BME280;49858;48.956;9.076;2023-01-30T00:31:32;99392.28;;;-0.39;100.00
63715;BME280;49858;48.956;9.076;2023-01-30T00:34:00;99411.28;;;0.07;100.00
63715;BME280;49858;48.956;9.076;2023-01-30T00:36:28;99407.19;;;0.56;100.00
63715;BME280;49858;48.956;9.076;2023-01-30T00:38:57;99410.75;;;0.36;100.00
63715;BME280;49858;48.956;9.076;2023-01-30T00:41:25;99426.19;;;0.25;100.00
63715;BME280;49858;48.956;9.076;2023-01-30T00:44:14;99426.72;;;0.17;100.00
63715;BME280;49858;48.956;9.076;2023-01-30T00:47:01;99441.84;;;-0.08;100.00
63715;BME280;49858;48.956;9.076;2023-01-30T00:49:32;99460.34;;;-0.57;100.00
63715;BME280;49858;48.956;9.076;2023-01-30T00:52:00;99480.34;;;-1.11;100.00
63715;BME280;49858;48.956;9.076;2023-01-30T00:54:28;99483.44;;;-1.34;100.00
63715;BME280;49858;48.956;9.076;2023-01-30T00:56:57;99491.72;;;-1.04;100.00
63715;BME280;49858;48.956;9.076;2023-01-30T00:59:26;99479.50;;;-0.69;100.00
63715;BME280;49858;48.956;9.076;2023-01-30T01:01:54;99474.13;;;-0.59;100.00
63715;BME280;49858;48.956;9.076;2023-01-30T01:04:22;99484.25;;;-0.86;100.00
63715;BME280;49858;48.956;9.076;2023-01-30T01:06:49;99475.28;;;-1.02;100.00
63715;BME280;49858;48.956;9.076;2023-01-30T01:09:18;99472.41;;;-0.80;100.00
63715;BME280;49858;48.956;9.076;2023-01-30T01:11:46;99465.50;;;-0.56;100.00
63715;BME280;49858;48.956;9.076;2023-01-30T01:14:14;99464.13;;;-1.16;100.00
63715;BME280;49858;48.956;9.076;2023-01-30T01:16:43;99468.72;;;-1.86;100.00
63715;BME280;49858;48.956;9.076;2023-01-30T01:19:11;99485.00;;;-1.70;100.00
63715;BME280;49858;48.956;9.076;2023-01-30T01:21:39;99490.13;;;-1.74;100.00
63715;BME280;49858;48.956;9.076;2023-01-30T01:24:11;99475.25;;;-1.07;100.00
63715;BME280;49858;48.956;9.076;2023-01-30T01:26:39;99455.56;;;-0.40;100.00
63715;BME280;49858;48.956;9.076;2023-01-30T01:29:11;99464.66;;;-0.61;100.00
63715;BME280;49858;48.956;9.076;2023-01-30T01:31:39;99468.72;;;-1.86;100.00
63715;BME280;49858;48.956;9.076;2023-01-30T01:34:09;99474.81;;;-1.95;100.00
63715;BME280;49858;48.956;9.076;2023-01-30T01:36:37;99475.31;;;-1.71;100.00
63715;BME280;49858;48.956;9.076;2023-01-30T01:39:19;99480.06;;;-1.51;100.00
63715;BME280;49858;48.956;9.076;2023-01-30T01:41:49;99486.47;;;-1.25;100.00
63715;BME280;49858;48.956;9.076;2023-01-30T01:44:15;99465.13;;;-0.85;100.00
63715;BME280;49858;48.956;9.076;2023-01-30T01:46:47;99450.34;;;-1.14;100.00
63715;BME280;49858;48.956;9.076;2023-01-30T01:49:21;99455.44;;;-1.60;100.00
63715;BME280;49858;48.956;9.076;2023-01-30T01:51:52;99478.94;;;-1.56;100.00
63715;BME280;49858;48.956;9.076;2023-01-30T01:54:25;99461.44;;;-1.85;100.00
63715;BME280;49858;48.956;9.076;2023-01-30T01:56:55;99468.25;;;-2.04;100.00
63715;BME280;49858;48.956;9.076;2023-01-30T01:59:25;99456.25;;;-2.19;100.00
63715;BME280;49858;48.956;9.076;2023-01-30T02:01:57;99453.72;;;-2.03;100.00
63715;BME280;49858;48.956;9.076;2023-01-30T02:04:30;99446.63;;;-1.83;100.00
63715;BME280;49858;48.956;9.076;2023-01-30T02:07:20;99436.88;;;-1.84;100.00
63715;BME280;49858;48.956;9.076;2023-01-30T02:09:49;99407.16;;;-1.94;100.00
63715;BME280;49858;48.956;9.076;2023-01-30T02:12:18;99418.31;;;-1.80;100.00
63715;BME280;49858;48.956;9.076;2023-01-30T02:14:47;99416.97;;;-1.83;100.00
63715;BME280;49858;48.956;9.076;2023-01-30T02:17:15;99401.91;;;-1.78;100.00
63715;BME280;49858;48.956;9.076;2023-01-30T02:19:49;99400.34;;;-1.69;100.00
63715;BME280;49858;48.956;9.076;2023-01-30T02:22:41;99413.56;;;-1.68;100.00
63715;BME280;49858;48.956;9.076;2023-01-30T02:28:38;99402.59;;;-1.56;100.00
63715;BME280;49858;48.956;9.076;2023-01-30T02:31:20;99386.72;;;-1.85;100.00
63715;BME280;49858;48.956;9.076;2023-01-30T02:33:59;99374.31;;;-1.86;100.00
63715;BME280;49858;48.956;9.076;2023-01-30T02:36:36;99369.28;;;-1.77;100.00
63715;BME280;49858;48.956;9.076;2023-01-30T02:39:11;99381.41;;;-1.74;100.00
63715;BME280;49858;48.956;9.076;2023-01-30T02:41:47;99384.69;;;-1.72;100.00
63715;BME280;49858;48.956;9.076;2023-01-30T02:44:25;99382.00;;;-1.67;100.00
63715;BME280;49858;48.956;9.076;2023-01-30T02:47:01;99386.63;;;-1.63;100.00
63715;BME280;49858;48.956;9.076;2023-01-30T02:49:36;99388.59;;;-1.53;100.00
63715;BME280;49858;48.956;9.076;2023-01-30T02:52:07;99388.34;;;-1.46;100.00
63715;BME280;49858;48.956;9.076;2023-01-30T02:54:37;99372.97;;;-1.46;100.00
63715;BME280;49858;48.956;9.076;2023-01-30T02:57:17;99354.34;;;-1.47;100.00
63715;BME280;49858;48.956;9.076;2023-01-30T02:59:48;99327.41;;;-1.37;100.00
63715;BME280;49858;48.956;9.076;2023-01-30T03:05:52;99294.16;;;-0.70;100.00
63715;BME280;49858;48.956;9.076;2023-01-30T03:08:31;99309.59;;;-0.55;100.00
63715;BME280;49858;48.956;9.076;2023-01-30T03:11:03;99289.81;;;-0.71;100.00
63715;BME280;49858;48.956;9.076;2023-01-30T03:13:40;99275.41;;;-1.17;100.00
63715;BME280;49858;48.956;9.076;2023-01-30T03:16:14;99269.25;;;-0.97;100.00
63715;BME280;49858;48.956;9.076;2023-01-30T03:18:43;99260.81;;;-1.21;100.00
63715;BME280;49858;48.956;9.076;2023-01-30T03:21:16;99260.66;;;-0.89;100.00
63715;BME280;49858;48.956;9.076;2023-01-30T03:23:44;99244.94;;;-1.02;100.00
63715;BME280;49858;48.956;9.076;2023-01-30T03:26:17;99256.56;;;-1.02;100.00
63715;BME280;49858;48.956;9.076;2023-01-30T03:28:48;99261.13;;;-1.08;100.00
63715;BME280;49858;48.956;9.076;2023-01-30T03:31:16;99276.25;;;-1.12;100.00
63715;BME280;49858;48.956;9.076;2023-01-30T03:33:44;99284.50;;;-1.39;100.00
63715;BME280;49858;48.956;9.076;2023-01-30T03:36:13;99289.44;;;-1.20;100.00
63715;BME280;49858;48.956;9.076;2023-01-30T03:38:45;99285.78;;;-0.68;100.00
63715;BME280;49858;48.956;9.076;2023-01-30T03:41:13;99279.88;;;-0.55;100.00
63715;BME280;49858;48.956;9.076;2023-01-30T03:43:41;99282.25;;;-0.79;100.00
63715;BME280;49858;48.956;9.076;2023-01-30T03:46:08;99283.91;;;-0.47;100.00
63715;BME280;49858;48.956;9.076;2023-01-30T03:48:37;99286.34;;;-0.41;100.00
63715;BME280;49858;48.956;9.076;2023-01-30T03:51:06;99288.78;;;-0.04;100.00
63715;BME280;49858;48.956;9.076;2023-01-30T03:53:33;99278.19;;;0.15;100.00
63715;BME280;49858;48.956;9.076;2023-01-30T03:56:03;99272.56;;;-0.39;100.00
63715;BME280;49858;48.956;9.076;2023-01-30T03:58:33;99289.03;;;-0.61;100.00
63715;BME280;49858;48.956;9.076;2023-01-30T04:01:13;99282.84;;;-0.36;100.00
63715;BME280;49858;48.956;9.076;2023-01-30T04:03:41;99274.44;;;-0.65;100.00
63715;BME280;49858;48.956;9.076;2023-01-30T04:06:09;99274.19;;;-0.18;100.00
63715;BME280;49858;48.956;9.076;2023-01-30T04:08:37;99276.88;;;-0.13;100.00
63715;BME280;49858;48.956;9.076;2023-01-30T04:11:07;99277.16;;;-0.19;100.00
63715;BME280;49858;48.956;9.076;2023-01-30T04:13:35;99285.25;;;-0.30;100.00
63715;BME280;49858;48.956;9.076;2023-01-30T04:16:14;99281.19;;;-0.58;100.00
63715;BME280;49858;48.956;9.076;2023-01-30T04:19:01;99287.97;;;-0.60;100.00
63715;BME280;49858;48.956;9.076;2023-01-30T04:21:31;99286.88;;;-0.74;100.00
63715;BME280;49858;48.956;9.076;2023-01-30T04:23:58;99282.50;;;-0.91;100.00
63715;BME280;49858;48.956;9.076;2023-01-30T04:26:28;99270.91;;;-0.76;100.00
63715;BME280;49858;48.956;9.076;2023-01-30T04:28:56;99269.28;;;-0.67;100.00
63715;BME280;49858;48.956;9.076;2023-01-30T04:31:26;99268.78;;;-0.69;100.00
63715;BME280;49858;48.956;9.076;2023-01-30T04:34:04;99276.06;;;-0.59;100.00
63715;BME280;49858;48.956;9.076;2023-01-30T04:36:33;99285.50;;;-0.72;100.00
63715;BME280;49858;48.956;9.076;2023-01-30T04:39:03;99290.66;;;-0.60;100.00
63715;BME280;49858;48.956;9.076;2023-01-30T04:41:32;99302.00;;;-0.58;100.00
63715;BME280;49858;48.956;9.076;2023-01-30T04:44:01;99290.38;;;-0.59;100.00
63715;BME280;49858;48.956;9.076;2023-01-30T04:46:52;99275.53;;;-0.36;100.00
63715;BME280;49858;48.956;9.076;2023-01-30T04:49:20;99273.66;;;-0.40;100.00
63715;BME280;49858;48.956;9.076;2023-01-30T04:51:48;99275.53;;;-0.56;100.00
63715;BME280;49858;48.956;9.076;2023-01-30T04:54:16;99266.88;;;-0.73;100.00
63715;BME280;49858;48.956;9.076;2023-01-30T04:56:46;99276.63;;;-0.47;100.00
63715;BME280;49858;48.956;9.076;2023-01-30T04:59:14;99266.34;;;-0.50;100.00
63715;BME280;49858;48.956;9.076;2023-01-30T05:01:43;99262.28;;;-0.53;100.00
63715;BME280;49858;48.956;9.076;2023-01-30T05:04:13;99262.03;;;-0.51;100.00
63715;BME280;49858;48.956;9.076;2023-01-30T05:06:40;99262.84;;;-0.56;100.00
63715;BME280;49858;48.956;9.076;2023-01-30T05:09:08;99252.84;;;-0.40;100.00
63715;BME280;49858;48.956;9.076;2023-01-30T05:11:36;99238.78;;;-0.42;100.00
63715;BME280;49858;48.956;9.076;2023-01-30T05:14:06;99236.91;;;-0.41;100.00
63715;BME280;49858;48.956;9.076;2023-01-30T05:16:33;99238.78;;;-0.37;100.00
63715;BME280;49858;48.956;9.076;2023-01-30T05:19:01;99243.63;;;-0.44;100.00
63715;BME280;49858;48.956;9.076;2023-01-30T05:21:29;99245.25;;;-0.43;100.00
63715;BME280;49858;48.956;9.076;2023-01-30T05:23:57;99244.72;;;-0.30;100.00
63715;BME280;49858;48.956;9.076;2023-01-30T05:26:24;99239.06;;;-0.28;100.00
63715;BME280;49858;48.956;9.076;2023-01-30T05:28:55;99245.81;;;-0.31;100.00
63715;BME280;49858;48.956;9.076;2023-01-30T05:31:24;99244.16;;;-0.16;100.00
63715;BME280;49858;48.956;9.076;2023-01-30T05:33:52;99239.59;;;-0.31;100.00
63715;BME280;49858;48.956;9.076;2023-01-30T05:36:21;99230.34;;;0.11;100.00
63715;BME280;49858;48.956;9.076;2023-01-30T05:38:50;99228.75;;;-0.16;100.00
63715;BME280;49858;48.956;9.076;2023-01-30T05:41:18;99229.03;;;-0.22;100.00
63715;BME280;49858;48.956;9.076;2023-01-30T05:43:48;99218.41;;;0.12;100.00
63715;BME280;49858;48.956;9.076;2023-01-30T05:46:16;99219.56;;;-0.05;100.00
63715;BME280;49858;48.956;9.076;2023-01-30T05:48:45;99226.84;;;-0.10;100.00
63715;BME280;49858;48.956;9.076;2023-01-30T05:51:16;99216.56;;;-0.03;100.00
63715;BME280;49858;48.956;9.076;2023-01-30T05:53:44;99210.81;;;0.29;100.00
63715;BME280;49858;48.956;9.076;2023-01-30T05:56:13;99198.88;;;0.35;100.00
63715;BME280;49858;48.956;9.076;2023-01-30T05:58:42;99193.91;;;1.02;100.00
63715;BME280;49858;48.956;9.076;2023-01-30T06:01:11;99203.63;;;0.59;100.00
63715;BME280;49858;48.956;9.076;2023-01-30T06:03:39;99198.72;;;-0.04;100.00
63715;BME280;49858;48.956;9.076;2023-01-30T06:06:09;99192.81;;;-0.21;100.00
63715;BME280;49858;48.956;9.076;2023-01-30T06:08:38;99188.50;;;-0.22;100.00
63715;BME280;49858;48.956;9.076;2023-01-30T06:11:08;99189.56;;;-0.18;100.00
63715;BME280;49858;48.956;9.076;2023-01-30T06:13:36;99192.78;;;-0.16;100.00
63715;BME280;49858;48.956;9.076;2023-01-30T06:16:05;99186.47;;;0.14;100.00
63715;BME280;49858;48.956;9.076;2023-01-30T06:18:34;99199.00;;;-0.11;100.00
63715;BME280;49858;48.956;9.076;2023-01-30T06:21:02;99197.88;;;0.11;100.00
63715;BME280;49858;48.956;9.076;2023-01-30T06:23:32;99188.03;;;0.35;100.00
63715;BME280;49858;48.956;9.076;2023-01-30T06:26:00;99201.53;;;0.45;100.00
63715;BME280;49858;48.956;9.076;2023-01-30T06:28:30;99202.41;;;0.25;100.00
63715;BME280;49858;48.956;9.076;2023-01-30T06:30:58;99185.00;;;0.52;100.00
63715;BME280;49858;48.956;9.076;2023-01-30T06:33:28;99184.84;;;0.18;100.00
63715;BME280;49858;48.956;9.076;2023-01-30T06:35:56;99187.66;;;-0.08;100.00
63715;BME280;49858;48.956;9.076;2023-01-30T06:38:24;99194.94;;;-0.03;100.00
63715;BME280;49858;48.956;9.076;2023-01-30T06:40:53;99204.66;;;-0.02;100.00
63715;BME280;49858;48.956;9.076;2023-01-30T06:43:21;99197.63;;;0.02;100.00
63715;BME280;49858;48.956;9.076;2023-01-30T06:45:49;99199.81;;;0.00;100.00
63715;BME280;49858;48.956;9.076;2023-01-30T06:48:16;99197.59;;;0.12;100.00
63715;BME280;49858;48.956;9.076;2023-01-30T06:50:45;99190.28;;;0.08;100.00
63715;BME280;49858;48.956;9.076;2023-01-30T06:53:13;99189.47;;;0.12;100.00
63715;BME280;49858;48.956;9.076;2023-01-30T06:55:41;99186.22;;;0.15;100.00
63715;BME280;49858;48.956;9.076;2023-01-30T06:58:11;99195.69;;;0.13;100.00
63715;BME280;49858;48.956;9.076;2023-01-30T07:00:40;99187.28;;;0.19;100.00
63715;BME280;49858;48.956;9.076;2023-01-30T07:03:09;99199.47;;;0.12;100.00
63715;BME280;49858;48.956;9.076;2023-01-30T07:05:38;99190.25;;;0.18;100.00
63715;BME280;49858;48.956;9.076;2023-01-30T07:08:06;99201.66;;;0.15;100.00
63715;BME280;49858;48.956;9.076;2023-01-30T07:10:37;99203.91;;;0.57;100.00
63715;BME280;49858;48.956;9.076;2023-01-30T07:13:05;99215.16;;;0.80;100.00
63715;BME280;49858;48.956;9.076;2023-01-30T07:15:34;99229.88;;;0.63;100.00
63715;BME280;49858;48.956;9.076;2023-01-30T07:18:02;99225.34;;;0.48;100.00
63715;BME280;49858;48.956;9.076;2023-01-30T07:20:30;99236.59;;;0.66;100.00
63715;BME280;49858;48.956;9.076;2023-01-30T07:22:58;99242.38;;;0.49;100.00
63715;BME280;49858;48.956;9.076;2023-01-30T07:25:27;99238.00;;;0.63;100.00
63715;BME280;49858;48.956;9.076;2023-01-30T07:27:56;99236.91;;;0.64;100.00
63715;BME280;49858;48.956;9.076;2023-01-30T07:30:25;99224.22;;;0.55;100.00
63715;BME280;49858;48.956;9.076;2023-01-30T07:32:56;99226.31;;;0.68;100.00
63715;BME280;49858;48.956;9.076;2023-01-30T07:35:25;99233.53;;;0.88;100.00
63715;BME280;49858;48.956;9.076;2023-01-30T07:37:54;99232.88;;;1.06;100.00
63715;BME280;49858;48.956;9.076;2023-01-30T07:40:22;99248.84;;;1.08;100.00
63715;BME280;49858;48.956;9.076;2023-01-30T07:42:57;99251.56;;;1.08;100.00
63715;BME280;49858;48.956;9.076;2023-01-30T07:45:27;99243.50;;;0.97;100.00
63715;BME280;49858;48.956;9.076;2023-01-30T07:47:57;99236.84;;;0.74;100.00
63715;BME280;49858;48.956;9.076;2023-01-30T07:50:25;99239.66;;;0.54;100.00
63715;BME280;49858;48.956;9.076;2023-01-30T07:52:53;99227.66;;;0.75;100.00
63715;BME280;49858;48.956;9.076;2023-01-30T07:55:21;99223.19;;;1.00;100.00
63715;BME280;49858;48.956;9.076;2023-01-30T07:57:48;99220.66;;;0.64;100.00
63715;BME280;49858;48.956;9.076;2023-01-30T08:00:17;99215.13;;;0.90;100.00
63715;BME280;49858;48.956;9.076;2023-01-30T08:02:46;99236.91;;;0.64;100.00
63715;BME280;49858;48.956;9.076;2023-01-30T08:05:15;99235.28;;;0.63;100.00
63715;BME280;49858;48.956;9.076;2023-01-30T08:07:43;99230.78;;;0.43;100.00
63715;BME280;49858;48.956;9.076;2023-01-30T08:10:13;99228.47;;;0.76;100.00
63715;BME280;49858;48.956;9.076;2023-01-30T08:12:42;99214.06;;;0.86;100.00
63715;BME280;49858;48.956;9.076;2023-01-30T08:15:10;99209.72;;;0.80;100.00
63715;BME280;49858;48.956;9.076;2023-01-30T08:17:38;99177.13;;;1.63;100.00
63715;BME280;49858;48.956;9.076;2023-01-30T08:20:07;99170.66;;;1.59;100.00
63715;BME280;49858;48.956;9.076;2023-01-30T08:22:36;99184.31;;;0.70;100.00
63715;BME280;49858;48.956;9.076;2023-01-30T08:25:05;99171.38;;;0.67;100.00
63715;BME280;49858;48.956;9.076;2023-01-30T08:27:33;99159.34;;;0.84;100.00
63715;BME280;49858;48.956;9.076;2023-01-30T08:30:02;99166.03;;;0.57;100.00
63715;BME280;49858;48.956;9.076;2023-01-30T08:32:30;99165.16;;;0.67;100.00
63715;BME280;49858;48.956;9.076;2023-01-30T08:34:58;99175.09;;;0.76;100.00
63715;BME280;49858;48.956;9.076;2023-01-30T08:37:26;99194.66;;;0.68;100.00
63715;BME280;49858;48.956;9.076;2023-01-30T08:39:55;99188.44;;;1.07;100.00
63715;BME280;49858;48.956;9.076;2023-01-30T08:42:23;99185.63;;;0.83;100.00
63715;BME280;49858;48.956;9.076;2023-01-30T08:44:51;99177.72;;;0.92;100.00
63715;BME280;49858;48.956;9.076;2023-01-30T08:47:18;99173.31;;;1.64;100.00
63715;BME280;49858;48.956;9.076;2023-01-30T08:49:46;99189.69;;;1.54;100.00
63715;BME280;49858;48.956;9.076;2023-01-30T08:52:16;99174.72;;;1.33;100.00
63715;BME280;49858;48.956;9.076;2023-01-30T08:54:45;99158.78;;;1.55;100.00
63715;BME280;49858;48.956;9.076;2023-01-30T08:57:15;99141.00;;;1.44;100.00
63715;BME280;49858;48.956;9.076;2023-01-30T08:59:42;99128.72;;;1.22;100.00
63715;BME280;49858;48.956;9.076;2023-01-30T09:02:12;99129.63;;;1.42;100.00
63715;BME280;49858;48.956;9.076;2023-01-30T09:04:40;99124.63;;;1.25;100.00
63715;BME280;49858;48.956;9.076;2023-01-30T09:07:08;99121.78;;;1.40;100.00
63715;BME280;49858;48.956;9.076;2023-01-30T09:09:35;99124.19;;;1.95;100.00
63715;BME280;49858;48.956;9.076;2023-01-30T09:12:04;99126.66;;;2.15;100.00
63715;BME280;49858;48.956;9.076;2023-01-30T09:14:33;99143.47;;;2.17;100.00
63715;BME280;49858;48.956;9.076;2023-01-30T09:17:01;99133.44;;;2.37;100.00
63715;BME280;49858;48.956;9.076;2023-01-30T09:19:29;99134.34;;;2.51;100.00
63715;BME280;49858;48.956;9.076;2023-01-30T09:21:57;99126.44;;;2.54;100.00
63715;BME280;49858;48.956;9.076;2023-01-30T09:24:24;99119.91;;;2.74;100.00
63715;BME280;49858;48.956;9.076;2023-01-30T09:26:53;99131.00;;;2.59;100.00
63715;BME280;49858;48.956;9.076;2023-01-30T09:29:23;99126.22;;;2.70;100.00
63715;BME280;49858;48.956;9.076;2023-01-30T09:31:53;99130.09;;;2.83;100.00
63715;BME280;49858;48.956;9.076;2023-01-30T09:34:22;99133.56;;;2.69;100.00
63715;BME280;49858;48.956;9.076;2023-01-30T09:36:53;99121.66;;;2.84;100.00
63715;BME280;49858;48.956;9.076;2023-01-30T09:39:20;99107.75;;;2.86;100.00
63715;BME280;49858;48.956;9.076;2023-01-30T09:41:56;99113.66;;;2.93;100.00
63715;BME280;49858;48.956;9.076;2023-01-30T09:44:52;99113.28;;;2.80;100.00
63715;BME280;49858;48.956;9.076;2023-01-30T09:47:35;99114.81;;;2.87;100.00
63715;BME280;49858;48.956;9.076;2023-01-30T09:50:19;99106.22;;;2.98;100.00
63715;BME280;49858;48.956;9.076;2023-01-30T09:52:56;99093.50;;;2.94;100.00
63715;BME280;49858;48.956;9.076;2023-01-30T09:55:29;99092.09;;;2.96;100.00
63715;BME280;49858;48.956;9.076;2023-01-30T09:57:59;99088.50;;;3.01;100.00
63715;BME280;49858;48.956;9.076;2023-01-30T10:00:31;99087.03;;;3.08;100.00
63715;BME280;49858;48.956;9.076;2023-01-30T10:03:05;99099.44;;;2.96;100.00
63715;BME280;49858;48.956;9.076;2023-01-30T10:05:42;99101.75;;;3.21;100.00
63715;BME280;49858;48.956;9.076;2023-01-30T10:08:32;99086.84;;;3.19;100.00
63715;BME280;49858;48.956;9.076;2023-01-30T10:11:13;99099.63;;;3.18;100.00
63715;BME280;49858;48.956;9.076;2023-01-30T10:14:13;99115.63;;;3.20;100.00
63715;BME280;49858;48.956;9.076;2023-01-30T10:16:49;99091.28;;;3.28;100.00
63715;BME280;49858;48.956;9.076;2023-01-30T10:19:46;99083.66;;;3.30;100.00
63715;BME280;49858;48.956;9.076;2023-01-30T10:22:27;99098.69;;;3.42;100.00
63715;BME280;49858;48.956;9.076;2023-01-30T10:25:10;99080.88;;;3.49;100.00
63715;BME280;49858;48.956;9.076;2023-01-30T10:27:47;99085.59;;;3.57;100.00
63715;BME280;49858;48.956;9.076;2023-01-30T10:30:17;99089.31;;;3.34;100.00
63715;BME280;49858;48.956;9.076;2023-01-30T10:32:49;99085.53;;;3.63;100.00
63715;BME280;49858;48.956;9.076;2023-01-30T10:35:22;99088.09;;;3.40;100.00
63715;BME280;49858;48.956;9.076;2023-01-30T10:37:58;99073.81;;;3.35;100.00
63715;BME280;49858;48.956;9.076;2023-01-30T10:40:33;99066.16;;;3.37;100.00
63715;BME280;49858;48.956;9.076;2023-01-30T10:43:11;99071.00;;;3.40;100.00
63715;BME280;49858;48.956;9.076;2023-01-30T10:45:48;99082.69;;;3.54;100.00
63715;BME280;49858;48.956;9.076;2023-01-30T10:48:29;99062.31;;;3.38;100.00
63715;BME280;49858;48.956;9.076;2023-01-30T10:51:19;99056.69;;;3.48;100.00
63715;BME280;49858;48.956;9.076;2023-01-30T10:53:52;99065.56;;;3.40;100.00
63715;BME280;49858;48.956;9.076;2023-01-30T10:56:31;99056.59;;;3.53;100.00
63715;BME280;49858;48.956;9.076;2023-01-30T10:59:21;99065.56;;;3.40;100.00
63715;BME280;49858;48.956;9.076;2023-01-30T11:01:58;99069.19;;;3.49;100.00
63715;BME280;49858;48.956;9.076;2023-01-30T11:04:30;99080.41;;;3.28;100.00
63715;BME280;49858;48.956;9.076;2023-01-30T11:07:00;99081.69;;;3.50;100.00
63715;BME280;49858;48.956;9.076;2023-01-30T11:09:39;99076.03;;;3.46;100.00
63715;BME280;49858;48.956;9.076;2023-01-30T11:12:07;99083.88;;;3.48;100.00
63715;BME280;49858;48.956;9.076;2023-01-30T11:14:56;99079.25;;;3.35;100.00
63715;BME280;49858;48.956;9.076;2023-01-30T11:17:32;99058.88;;;3.32;100.00
63715;BME280;49858;48.956;9.076;2023-01-30T11:20:04;99053.88;;;3.53;100.00
63715;BME280;49858;48.956;9.076;2023-01-30T11:22:36;99056.28;;;3.54;100.00
63715;BME280;49858;48.956;9.076;2023-01-30T11:25:12;99053.69;;;3.49;100.00
63715;BME280;49858;48.956;9.076;2023-01-30T11:27:42;99059.31;;;3.39;100.00
63715;BME280;49858;48.956;9.076;2023-01-30T11:30:13;99062.66;;;3.64;100.00
63715;BME280;49858;48.956;9.076;2023-01-30T11:32:43;99066.88;;;3.56;100.00
63715;BME280;49858;48.956;9.076;2023-01-30T11:35:21;99064.94;;;3.43;100.00
63715;BME280;49858;48.956;9.076;2023-01-30T11:37:51;99077.97;;;3.59;100.00
63715;BME280;49858;48.956;9.076;2023-01-30T11:40:26;99078.25;;;3.44;100.00
63715;BME280;49858;48.956;9.076;2023-01-30T11:43:00;99082.81;;;3.63;100.00
63715;BME280;49858;48.956;9.076;2023-01-30T11:45:33;99080.88;;;3.49;100.00
63715;BME280;49858;48.956;9.076;2023-01-30T11:48:04;99091.50;;;3.32;100.00
63715;BME280;49858;48.956;9.076;2023-01-30T11:50:40;99091.19;;;3.33;100.00
63715;BME280;49858;48.956;9.076;2023-01-30T11:53:22;99077.00;;;3.23;100.00
63715;BME280;49858;48.956;9.076;2023-01-30T11:55:54;99074.91;;;3.47;100.00
63715;BME280;49858;48.956;9.076;2023-01-30T11:58:35;99074.31;;;3.37;100.00
63715;BME280;49858;48.956;9.076;2023-01-30T12:01:07;99080.31;;;3.33;100.00
63715;BME280;49858;48.956;9.076;2023-01-30T12:03:44;99078.16;;;3.03;100.00
63715;BME280;49858;48.956;9.076;2023-01-30T12:06:21;99073.22;;;3.05;100.00
63715;BME280;49858;48.956;9.076;2023-01-30T12:08:52;99070.25;;;2.88;100.00
63715;BME280;49858;48.956;9.076;2023-01-30T12:11:27;99069.81;;;2.80;100.00
63715;BME280;49858;48.956;9.076;2023-01-30T12:14:03;99064.13;;;2.96;100.00
63715;BME280;49858;48.956;9.076;2023-01-30T12:16:49;99071.16;;;2.64;100.00
63715;BME280;49858;48.956;9.076;2023-01-30T12:19:28;99063.63;;;2.94;100.00
63715;BME280;49858;48.956;9.076;2023-01-30T12:22:08;99072.28;;;2.96;100.00
63715;BME280;49858;48.956;9.076;2023-01-30T12:24:44;99069.19;;;3.02;100.00
63715;BME280;49858;48.956;9.076;2023-01-30T12:27:20;99076.84;;;2.81;100.00
63715;BME280;49858;48.956;9.076;2023-01-30T12:29:58;99073.06;;;2.96;100.00
63715;BME280;49858;48.956;9.076;2023-01-30T12:32:30;99074.53;;;3.07;100.00
63715;BME280;49858;48.956;9.076;2023-01-30T12:34:58;99078.09;;;3.22;100.00
63715;BME280;49858;48.956;9.076;2023-01-30T12:37:37;99081.59;;;3.08;100.00
63715;BME280;49858;48.956;9.076;2023-01-30T12:40:22;99093.81;;;3.25;100.00
63715;BME280;49858;48.956;9.076;2023-01-30T12:45:54;99093.47;;;3.13;100.00
63715;BME280;49858;48.956;9.076;2023-01-30T12:48:53;99097.44;;;3.20;100.00
63715;BME280;49858;48.956;9.076;2023-01-30T12:51:53;99096.44;;;3.30;100.00
63715;BME280;49858;48.956;9.076;2023-01-30T12:54:36;99091.28;;;3.28;100.00
63715;BME280;49858;48.956;9.076;2023-01-30T12:57:17;99092.72;;;3.26;100.00
63715;BME280;49858;48.956;9.076;2023-01-30T12:59:59;99096.41;;;3.16;100.00
63715;BME280;49858;48.956;9.076;2023-01-30T13:02:51;99089.34;;;3.15;100.00
63715;BME280;49858;48.956;9.076;2023-01-30T13:05:33;99081.13;;;3.20;100.00
63715;BME280;49858;48.956;9.076;2023-01-30T13:08:30;99105.69;;;2.96;100.00
63715;BME280;49858;48.956;9.076;2023-01-30T13:11:08;99097.66;;;3.05;100.00
63715;BME280;49858;48.956;9.076;2023-01-30T13:13:46;99104.38;;;2.94;100.00
63715;BME280;49858;48.956;9.076;2023-01-30T13:16:26;99099.94;;;3.17;100.00
63715;BME280;49858;48.956;9.076;2023-01-30T13:18:56;99104.03;;;3.14;100.00
63715;BME280;49858;48.956;9.076;2023-01-30T13:21:32;99088.66;;;3.23;100.00
63715;BME280;49858;48.956;9.076;2023-01-30T13:24:13;99098.03;;;3.17;100.00
63715;BME280;49858;48.956;9.076;2023-01-30T13:26:45;99109.88;;;3.40;100.00
63715;BME280;49858;48.956;9.076;2023-01-30T13:29:25;99123.19;;;2.90;100.00
63715;BME280;49858;48.956;9.076;2023-01-30T13:31:57;99135.31;;;2.98;100.00